createdAt,value
2023-02-13T00:00:26.360Z,6.64
2023-02-13T00:01:26.363Z,6.52
2023-02-13T00:02:26.360Z,6.57
2023-02-13T00:03:26.392Z,6.63
2023-02-13T00:04:26.350Z,6.67
2023-02-13T00:05:26.317Z,6.48
2023-02-13T00:06:26.312Z,6.72
2023-02-13T00:07:26.308Z,6.57
2023-02-13T00:08:26.301Z,6.59
2023-02-13T00:09:26.309Z,6.63
2023-02-13T00:10:26.281Z,6.60
2023-02-13T00:11:26.274Z,6.56
2023-02-13T00:12:26.272Z,6.62
2023-02-13T00:13:26.257Z,6.60
2023-02-13T00:14:26.272Z,6.60
2023-02-13T00:15:26.299Z,6.48
2023-02-13T00:16:26.228Z,6.45
2023-02-13T00:17:26.229Z,6.39
2023-02-13T00:18:26.223Z,6.38
2023-02-13T00:19:26.234Z,6.31
2023-02-13T00:20:26.205Z,6.28
2023-02-13T00:21:26.192Z,6.38
2023-02-13T00:22:26.205Z,6.35
2023-02-13T00:23:26.178Z,6.41
2023-02-13T00:24:26.198Z,6.48
2023-02-13T00:25:26.158Z,6.42
2023-02-13T00:26:26.159Z,6.35
2023-02-13T00:27:27.147Z,6.33
2023-02-13T00:28:26.174Z,6.42
2023-02-13T00:29:26.187Z,6.46
2023-02-13T00:30:26.120Z,6.28
2023-02-13T00:31:26.248Z,6.42
2023-02-13T00:32:26.101Z,6.39
2023-02-13T00:33:26.094Z,6.38
2023-02-13T00:34:26.114Z,6.41
2023-02-13T00:35:26.083Z,6.51
2023-02-13T00:36:26.069Z,6.44
2023-02-13T00:37:26.066Z,6.44
2023-02-13T00:38:26.057Z,6.39
2023-02-13T00:39:26.070Z,6.46
2023-02-13T00:40:26.041Z,6.42
2023-02-13T00:41:26.029Z,6.42
2023-02-13T00:42:26.021Z,6.46
2023-02-13T00:43:26.016Z,6.48
2023-02-13T00:44:26.033Z,6.57
2023-02-13T00:45:26.000Z,6.44
2023-02-13T00:46:26.017Z,6.45
2023-02-13T00:47:25.983Z,6.49
2023-02-13T00:48:25.976Z,6.48
2023-02-13T00:49:26.003Z,6.45
2023-02-13T00:50:25.962Z,6.30
2023-02-13T00:51:25.956Z,6.38
2023-02-13T00:52:25.945Z,6.38
2023-02-13T00:53:25.939Z,6.24
2023-02-13T00:54:25.955Z,6.22
2023-02-13T00:55:25.928Z,6.26
2023-02-13T00:56:25.914Z,6.16
2023-02-13T00:57:25.901Z,6.22
2023-02-13T00:58:26.919Z,6.26
2023-02-13T00:59:25.911Z,6.22
2023-02-13T01:00:25.880Z,6.19
2023-02-13T01:01:25.936Z,6.17
2023-02-13T01:02:25.863Z,6.14
2023-02-13T01:03:25.893Z,6.17
2023-02-13T01:04:25.890Z,6.08
2023-02-13T01:05:25.840Z,6.16
2023-02-13T01:06:25.837Z,6.17
2023-02-13T01:07:25.825Z,6.16
2023-02-13T01:08:25.823Z,6.12
2023-02-13T01:09:25.844Z,6.28
2023-02-13T01:10:25.802Z,6.09
2023-02-13T01:11:25.814Z,6.09
2023-02-13T01:12:25.786Z,6.14
2023-02-13T01:13:25.783Z,6.02
2023-02-13T01:14:25.803Z,5.97
2023-02-13T01:15:25.766Z,6.09
2023-02-13T01:16:25.779Z,6.05
2023-02-13T01:17:25.748Z,5.94
2023-02-13T01:18:25.747Z,5.90
2023-02-13T01:19:25.762Z,5.91
2023-02-13T01:20:25.724Z,5.90
2023-02-13T01:21:25.717Z,5.90
2023-02-13T01:22:25.711Z,5.91
2023-02-13T01:23:25.707Z,5.90
2023-02-13T01:24:25.717Z,5.83
2023-02-13T01:25:25.694Z,5.94
2023-02-13T01:26:25.674Z,5.94
2023-02-13T01:27:25.678Z,6.02
2023-02-13T01:28:25.703Z,6.02
2023-02-13T01:29:25.681Z,6.02
2023-02-13T01:30:25.648Z,6.14
2023-02-13T01:31:25.747Z,6.08
2023-02-13T01:32:25.642Z,6.08
2023-02-13T01:33:25.630Z,6.09
2023-02-13T01:34:25.647Z,6.07
2023-02-13T01:35:25.612Z,6.17
2023-02-13T01:36:25.607Z,6.05
2023-02-13T01:37:25.589Z,6.14
2023-02-13T01:38:25.582Z,6.12
2023-02-13T01:39:25.600Z,6.12
2023-02-13T01:40:25.576Z,6.20
2023-02-13T01:41:25.553Z,6.19
2023-02-13T01:42:25.553Z,6.16
2023-02-13T01:43:25.556Z,6.24
2023-02-13T01:44:25.571Z,6.30
2023-02-13T01:45:25.526Z,6.17
2023-02-13T01:46:25.552Z,6.35
2023-02-13T01:47:25.506Z,6.09
2023-02-13T01:48:25.499Z,6.26
2023-02-13T01:49:25.520Z,6.20
2023-02-13T01:50:25.483Z,6.11
2023-02-13T01:51:25.481Z,6.08
2023-02-13T01:52:25.465Z,6.12
2023-02-13T01:53:25.483Z,6.04
2023-02-13T01:54:25.451Z,6.08
2023-02-13T01:55:25.470Z,6.01
2023-02-13T01:56:25.433Z,5.98
2023-02-13T01:57:25.434Z,5.89
2023-02-13T01:58:25.421Z,5.87
2023-02-13T01:59:25.409Z,5.90
2023-02-13T02:00:25.430Z,5.82
2023-02-13T02:01:25.446Z,5.87
2023-02-13T02:02:25.458Z,5.89
2023-02-13T02:03:25.380Z,5.83
2023-02-13T02:04:25.378Z,5.83
2023-02-13T02:05:25.392Z,5.84
2023-02-13T02:06:25.357Z,5.83
2023-02-13T02:07:25.364Z,5.98
2023-02-13T02:08:25.341Z,5.93
2023-02-13T02:09:25.334Z,5.87
2023-02-13T02:10:25.351Z,5.87
2023-02-13T02:11:25.317Z,5.84
2023-02-13T02:12:25.310Z,5.91
2023-02-13T02:13:25.316Z,5.97
2023-02-13T02:14:25.298Z,6.04
2023-02-13T02:15:25.314Z,6.01
2023-02-13T02:16:25.359Z,6.07
2023-02-13T02:17:25.276Z,6.05
2023-02-13T02:18:25.279Z,5.97
2023-02-13T02:19:25.261Z,6.01
2023-02-13T02:20:25.280Z,5.98
2023-02-13T02:21:25.239Z,6.05
2023-02-13T02:22:25.242Z,6.04
2023-02-13T02:23:25.225Z,6.02
2023-02-13T02:24:25.215Z,5.99
2023-02-13T02:25:25.238Z,5.94
2023-02-13T02:26:25.205Z,6.01
2023-02-13T02:27:25.217Z,5.94
2023-02-13T02:28:25.242Z,5.89
2023-02-13T02:29:25.192Z,5.82
2023-02-13T02:30:25.244Z,5.87
2023-02-13T02:31:25.214Z,5.76
2023-02-13T02:32:25.152Z,5.91
2023-02-13T02:33:25.148Z,5.76
2023-02-13T02:34:25.138Z,5.75
2023-02-13T02:35:25.155Z,5.76
2023-02-13T02:36:25.122Z,5.82
2023-02-13T02:37:25.118Z,5.79
2023-02-13T02:38:25.106Z,5.76
2023-02-13T02:39:25.093Z,5.73
2023-02-13T02:40:25.121Z,5.71
2023-02-13T02:41:25.076Z,5.68
2023-02-13T02:42:25.078Z,5.75
2023-02-13T02:43:25.075Z,5.65
2023-02-13T02:44:25.059Z,5.75
2023-02-13T02:45:25.078Z,5.71
2023-02-13T02:46:25.054Z,5.72
2023-02-13T02:47:25.034Z,5.71
2023-02-13T02:48:25.023Z,5.71
2023-02-13T02:49:25.012Z,5.65
2023-02-13T02:50:25.052Z,5.72
2023-02-13T02:51:25.000Z,5.62
2023-02-13T02:52:24.992Z,5.72
2023-02-13T02:53:24.978Z,5.80
2023-02-13T02:54:24.971Z,5.72
2023-02-13T02:55:24.991Z,5.71
2023-02-13T02:56:24.953Z,5.69
2023-02-13T02:57:24.958Z,5.83
2023-02-13T02:58:24.941Z,5.83
2023-02-13T02:59:24.936Z,5.68
2023-02-13T03:00:24.960Z,5.76
2023-02-13T03:01:24.986Z,5.73
2023-02-13T03:02:24.913Z,5.73
2023-02-13T03:03:24.899Z,5.73
2023-02-13T03:04:25.925Z,5.72
2023-02-13T03:05:24.910Z,5.73
2023-02-13T03:06:24.876Z,5.68
2023-02-13T03:07:24.871Z,5.86
2023-02-13T03:08:24.858Z,5.76
2023-02-13T03:09:24.851Z,5.73
2023-02-13T03:10:24.869Z,5.86
2023-02-13T03:11:24.831Z,5.84
2023-02-13T03:12:24.831Z,5.72
2023-02-13T03:13:24.831Z,5.73
2023-02-13T03:14:24.815Z,5.82
2023-02-13T03:15:24.829Z,5.75
2023-02-13T03:16:24.827Z,5.79
2023-02-13T03:17:24.796Z,5.86
2023-02-13T03:18:24.775Z,5.75
2023-02-13T03:19:24.775Z,5.76
2023-02-13T03:20:24.791Z,5.72
2023-02-13T03:21:24.757Z,5.86
2023-02-13T03:22:24.752Z,5.86
2023-02-13T03:23:24.743Z,5.71
2023-02-13T03:24:24.733Z,5.72
2023-02-13T03:25:24.753Z,5.69
2023-02-13T03:26:24.717Z,5.68
2023-02-13T03:27:24.711Z,5.73
2023-02-13T03:28:24.740Z,5.73
2023-02-13T03:29:24.688Z,5.69
2023-02-13T03:30:24.740Z,5.72
2023-02-13T03:31:24.725Z,5.72
2023-02-13T03:32:24.667Z,5.84
2023-02-13T03:33:24.657Z,5.90
2023-02-13T03:34:24.651Z,5.98
2023-02-13T03:35:24.670Z,5.94
2023-02-13T03:36:24.626Z,5.97
2023-02-13T03:37:25.628Z,5.93
2023-02-13T03:38:24.615Z,5.90
2023-02-13T03:39:24.621Z,5.87
2023-02-13T03:40:24.872Z,5.94
2023-02-13T03:41:24.598Z,5.94
2023-02-13T03:42:24.584Z,5.91
2023-02-13T03:43:24.596Z,5.87
2023-02-13T03:44:24.574Z,5.91
2023-02-13T03:45:24.608Z,5.87
2023-02-13T03:46:24.560Z,5.91
2023-02-13T03:47:24.548Z,5.98
2023-02-13T03:48:24.543Z,5.93
2023-02-13T03:49:24.540Z,5.90
2023-02-13T03:50:24.528Z,6.02
2023-02-13T03:51:24.547Z,5.98
2023-02-13T03:52:24.513Z,6.05
2023-02-13T03:53:24.513Z,6.04
2023-02-13T03:54:24.498Z,6.04
2023-02-13T03:55:24.491Z,6.01
2023-02-13T03:56:24.510Z,5.98
2023-02-13T03:57:24.476Z,6.01
2023-02-13T03:58:24.470Z,5.99
2023-02-13T03:59:24.471Z,6.04
2023-02-13T04:00:24.452Z,6.07
2023-02-13T04:01:24.494Z,6.11
2023-02-13T04:02:24.484Z,6.02
2023-02-13T04:03:24.433Z,6.05
2023-02-13T04:04:24.432Z,6.08
2023-02-13T04:05:24.416Z,6.05
2023-02-13T04:06:24.435Z,6.02
2023-02-13T04:07:24.400Z,6.04
2023-02-13T04:08:24.398Z,6.04
2023-02-13T04:09:24.382Z,5.99
2023-02-13T04:10:24.377Z,5.98
2023-02-13T04:11:24.393Z,6.01
2023-02-13T04:12:24.361Z,5.94
2023-02-13T04:13:24.352Z,5.94
2023-02-13T04:14:24.356Z,5.94
2023-02-13T04:15:24.340Z,5.97
2023-02-13T04:16:24.381Z,5.90
2023-02-13T04:17:24.329Z,5.99
2023-02-13T04:18:24.315Z,5.94
2023-02-13T04:19:24.420Z,5.94
2023-02-13T04:20:24.309Z,5.97
2023-02-13T04:21:24.327Z,5.97
2023-02-13T04:22:24.284Z,6.02
2023-02-13T04:23:24.280Z,5.94
2023-02-13T04:24:24.273Z,6.01
2023-02-13T04:25:24.267Z,5.93
2023-02-13T04:26:24.277Z,5.94
2023-02-13T04:27:24.243Z,5.99
2023-02-13T04:28:24.300Z,5.91
2023-02-13T04:29:24.229Z,5.91
2023-02-13T04:30:24.305Z,5.93
2023-02-13T04:31:24.306Z,6.01
2023-02-13T04:32:24.202Z,5.98
2023-02-13T04:33:24.194Z,5.93
2023-02-13T04:34:24.186Z,5.98
2023-02-13T04:35:24.180Z,5.98
2023-02-13T04:36:24.196Z,5.98
2023-02-13T04:37:24.165Z,5.97
2023-02-13T04:38:24.154Z,6.09
2023-02-13T04:39:24.156Z,5.98
2023-02-13T04:40:24.136Z,6.01
2023-02-13T04:41:24.158Z,5.99
2023-02-13T04:42:24.125Z,6.01
2023-02-13T04:43:24.119Z,6.04
2023-02-13T04:44:24.106Z,5.97
2023-02-13T04:45:24.106Z,6.09
2023-02-13T04:46:24.185Z,6.05
2023-02-13T04:47:24.087Z,6.04
2023-02-13T04:48:24.075Z,6.02
2023-02-13T04:49:24.070Z,6.04
2023-02-13T04:50:24.067Z,5.93
2023-02-13T04:51:24.083Z,6.02
2023-02-13T04:52:24.043Z,6.02
2023-02-13T04:53:24.043Z,5.97
2023-02-13T04:54:24.034Z,5.90
2023-02-13T04:55:24.025Z,5.98
2023-02-13T04:56:24.018Z,6.01
2023-02-13T04:57:24.037Z,5.89
2023-02-13T04:58:24.018Z,5.91
2023-02-13T04:59:23.983Z,5.91
2023-02-13T05:00:24.991Z,5.89
2023-02-13T05:01:24.048Z,5.93
2023-02-13T05:02:24.005Z,5.94
2023-02-13T05:03:23.966Z,5.84
2023-02-13T05:04:23.970Z,5.90
2023-02-13T05:05:23.951Z,5.84
2023-02-13T05:06:23.940Z,5.89
2023-02-13T05:07:23.968Z,5.91
2023-02-13T05:08:23.922Z,5.91
2023-02-13T05:09:23.913Z,5.90
2023-02-13T05:10:23.914Z,5.97
2023-02-13T05:11:23.903Z,5.86
2023-02-13T05:12:23.912Z,5.87
2023-02-13T05:13:23.883Z,5.83
2023-02-13T05:14:23.877Z,5.94
2023-02-13T05:15:23.864Z,6.01
2023-02-13T05:16:23.857Z,5.97
2023-02-13T05:17:24.298Z,5.93
2023-02-13T05:18:23.839Z,5.87
2023-02-13T05:19:23.831Z,5.91
2023-02-13T05:20:23.825Z,5.86
2023-02-13T05:21:23.814Z,5.94
2023-02-13T05:22:23.844Z,5.93
2023-02-13T05:23:23.865Z,5.93
2023-02-13T05:24:23.790Z,5.93
2023-02-13T05:25:23.794Z,5.98
2023-02-13T05:26:23.780Z,5.98
2023-02-13T05:27:24.792Z,5.93
2023-02-13T05:28:23.877Z,5.93
2023-02-13T05:29:23.757Z,5.86
2023-02-13T05:30:23.756Z,5.93
2023-02-13T05:31:23.843Z,5.90
2023-02-13T05:32:23.750Z,5.94
2023-02-13T05:33:23.725Z,5.89
2023-02-13T05:34:23.717Z,5.83
2023-02-13T05:35:23.707Z,5.91
2023-02-13T05:36:23.712Z,5.90
2023-02-13T05:37:23.715Z,5.97
2023-02-13T05:38:23.687Z,5.93
2023-02-13T05:39:23.671Z,5.86
2023-02-13T05:40:23.676Z,5.93
2023-02-13T05:41:23.664Z,5.84
2023-02-13T05:42:23.675Z,5.94
2023-02-13T05:43:23.643Z,5.97
2023-02-13T05:44:23.638Z,5.98
2023-02-13T05:45:23.627Z,5.93
2023-02-13T05:46:23.668Z,5.97
2023-02-13T05:47:23.638Z,5.99
2023-02-13T05:48:23.605Z,5.93
2023-02-13T05:49:23.596Z,6.05
2023-02-13T05:50:23.588Z,5.97
2023-02-13T05:51:23.588Z,6.01
2023-02-13T05:52:23.610Z,5.98
2023-02-13T05:53:23.573Z,5.99
2023-02-13T05:54:23.571Z,5.94
2023-02-13T05:55:23.550Z,5.97
2023-02-13T05:56:23.549Z,6.02
2023-02-13T05:57:23.566Z,6.05
2023-02-13T05:58:23.540Z,6.01
2023-02-13T05:59:24.105Z,5.91
2023-02-13T06:00:24.514Z,5.94
2023-02-13T06:01:23.506Z,5.93
2023-02-13T06:02:23.558Z,5.94
2023-02-13T06:03:23.576Z,5.93
2023-02-13T06:04:23.484Z,5.93
2023-02-13T06:05:23.476Z,5.98
2023-02-13T06:06:23.466Z,6.02
2023-02-13T06:07:23.480Z,5.91
2023-02-13T06:08:23.449Z,6.07
2023-02-13T06:09:23.442Z,6.01
2023-02-13T06:10:23.436Z,6.05
2023-02-13T06:11:23.423Z,6.04
2023-02-13T06:12:23.413Z,6.01
2023-02-13T06:13:23.435Z,5.98
2023-02-13T06:14:23.398Z,6.02
2023-02-13T06:15:24.397Z,5.97
2023-02-13T06:16:23.436Z,6.01
2023-02-13T06:17:23.378Z,5.94
2023-02-13T06:18:23.393Z,5.99
2023-02-13T06:19:23.365Z,6.01
2023-02-13T06:20:23.352Z,6.01
2023-02-13T06:21:23.357Z,5.93
2023-02-13T06:22:23.339Z,5.98
2023-02-13T06:23:23.362Z,5.89
2023-02-13T06:24:23.321Z,5.94
2023-02-13T06:25:23.311Z,5.87
2023-02-13T06:26:23.301Z,5.97
2023-02-13T06:27:23.321Z,5.89
2023-02-13T06:28:23.336Z,5.90
2023-02-13T06:29:23.280Z,6.02
2023-02-13T06:30:23.286Z,5.94
2023-02-13T06:31:23.392Z,5.86
2023-02-13T06:32:23.257Z,6.07
2023-02-13T06:33:23.281Z,5.91
2023-02-13T06:34:23.237Z,5.94
2023-02-13T06:35:24.232Z,5.97
2023-02-13T06:36:23.223Z,5.99
2023-02-13T06:37:23.211Z,5.94
2023-02-13T06:38:23.232Z,5.97
2023-02-13T06:39:23.201Z,6.01
2023-02-13T06:40:23.203Z,6.05
2023-02-13T06:41:23.186Z,5.98
2023-02-13T06:42:23.178Z,6.07
2023-02-13T06:43:23.191Z,6.05
2023-02-13T06:44:23.180Z,6.08
2023-02-13T06:45:23.155Z,6.02
2023-02-13T06:46:23.294Z,6.09
2023-02-13T06:47:23.135Z,6.08
2023-02-13T06:48:23.180Z,6.01
2023-02-13T06:49:23.176Z,6.04
2023-02-13T06:50:23.118Z,6.02
2023-02-13T06:51:23.109Z,5.98
2023-02-13T06:52:23.094Z,6.02
2023-02-13T06:53:23.126Z,5.98
2023-02-13T06:54:33.901Z,6.04
2023-02-13T06:55:25.070Z,5.94
2023-02-13T06:56:23.066Z,6.05
2023-02-13T06:57:23.059Z,6.05
2023-02-13T06:58:23.089Z,6.04
2023-02-13T06:59:23.034Z,6.07
2023-02-13T07:00:23.028Z,5.97
2023-02-13T07:01:23.067Z,5.94
2023-02-13T07:02:23.023Z,6.01
2023-02-13T07:03:23.031Z,6.07
2023-02-13T07:04:23.000Z,6.08
2023-02-13T07:05:22.988Z,6.04
2023-02-13T07:06:22.990Z,6.01
2023-02-13T07:07:22.977Z,6.05
2023-02-13T07:08:23.000Z,6.12
2023-02-13T07:09:22.958Z,6.01
2023-02-13T07:10:22.966Z,6.17
2023-02-13T07:11:22.943Z,6.04
2023-02-13T07:12:22.941Z,6.04
2023-02-13T07:13:22.957Z,6.02
2023-02-13T07:14:22.923Z,6.17
2023-02-13T07:15:22.923Z,6.08
2023-02-13T07:16:22.961Z,6.12
2023-02-13T07:17:22.903Z,6.27
2023-02-13T07:18:22.917Z,6.22
2023-02-13T07:19:22.885Z,6.26
2023-02-13T07:20:22.879Z,6.31
2023-02-13T07:21:22.865Z,6.48
2023-02-13T07:22:22.872Z,6.38
2023-02-13T07:23:22.900Z,6.42
2023-02-13T07:24:22.844Z,6.44
2023-02-13T07:25:22.841Z,6.38
2023-02-13T07:26:22.830Z,6.49
2023-02-13T07:27:22.826Z,6.48
2023-02-13T07:28:22.887Z,6.56
2023-02-13T07:29:22.808Z,6.60
2023-02-13T07:30:22.810Z,6.57
2023-02-13T07:31:22.852Z,6.64
2023-02-13T07:32:22.784Z,6.75
2023-02-13T07:33:22.801Z,6.82
2023-02-13T07:34:22.780Z,6.77
2023-02-13T07:35:22.763Z,6.81
2023-02-13T07:36:22.751Z,6.88
2023-02-13T07:37:22.746Z,6.87
2023-02-13T07:38:22.762Z,6.96
2023-02-13T07:39:22.731Z,6.87
2023-02-13T07:40:22.728Z,6.89
2023-02-13T07:41:22.717Z,6.92
2023-02-13T07:42:22.707Z,7.00
2023-02-13T07:43:22.731Z,6.97
2023-02-13T07:44:22.696Z,7.07
2023-02-13T07:45:22.680Z,7.18
2023-02-13T07:46:22.716Z,7.23
2023-02-13T07:47:22.694Z,7.29
2023-02-13T07:48:22.694Z,7.40
2023-02-13T07:49:22.666Z,7.42
2023-02-13T07:50:22.653Z,7.48
2023-02-13T07:51:22.646Z,7.58
2023-02-13T07:52:22.637Z,7.54
2023-02-13T07:53:22.658Z,7.58
2023-02-13T07:54:22.626Z,7.61
2023-02-13T07:55:22.608Z,7.61
2023-02-13T07:56:22.612Z,7.66
2023-02-13T07:57:22.613Z,7.69
2023-02-13T07:58:22.617Z,7.80
2023-02-13T07:59:22.579Z,7.80
2023-02-13T08:00:22.574Z,7.97
2023-02-13T08:01:22.696Z,8.00
2023-02-13T08:02:22.556Z,8.10
2023-02-13T08:03:22.580Z,7.97
2023-02-13T08:04:23.877Z,8.13
2023-02-13T08:05:22.533Z,8.01
2023-02-13T08:06:22.523Z,8.06
2023-02-13T08:07:22.524Z,8.15
2023-02-13T08:08:22.510Z,8.24
2023-02-13T08:09:22.529Z,8.36
2023-02-13T08:10:22.498Z,8.41
2023-02-13T08:11:22.485Z,8.41
2023-02-13T08:12:22.475Z,8.41
2023-02-13T08:13:22.460Z,8.46
2023-02-13T08:14:22.493Z,8.41
2023-02-13T08:15:22.456Z,8.46
2023-02-13T08:16:22.478Z,8.56
2023-02-13T08:17:22.430Z,8.66
2023-02-13T08:18:22.435Z,8.69
2023-02-13T08:19:22.445Z,8.70
2023-02-13T08:20:22.416Z,8.73
2023-02-13T08:21:22.396Z,8.78
2023-02-13T08:22:22.388Z,8.97
2023-02-13T08:23:22.396Z,8.97
2023-02-13T08:24:22.422Z,9.19
2023-02-13T08:25:22.379Z,9.26
2023-02-13T08:26:22.377Z,9.34
2023-02-13T08:27:22.348Z,9.40
2023-02-13T08:28:22.379Z,9.55
2023-02-13T08:29:22.355Z,9.68
2023-02-13T08:30:22.317Z,9.79
2023-02-13T08:31:22.395Z,9.89
2023-02-13T08:32:22.367Z,9.83
2023-02-13T08:33:22.302Z,9.58
2023-02-13T08:34:22.315Z,9.87
2023-02-13T08:35:22.283Z,9.95
2023-02-13T08:36:22.297Z,10.16
2023-02-13T08:37:22.263Z,10.41
2023-02-13T08:38:22.264Z,10.61
2023-02-13T08:39:22.274Z,10.96
2023-02-13T08:40:24.477Z,10.89
2023-02-13T08:41:22.228Z,11.19
2023-02-13T08:42:22.227Z,11.80
2023-02-13T08:43:22.222Z,12.02
2023-02-13T08:44:22.246Z,12.32
2023-02-13T08:45:22.200Z,12.60
2023-02-13T08:46:22.286Z,13.03
2023-02-13T08:47:22.201Z,13.53
2023-02-13T08:48:22.187Z,13.75
2023-02-13T08:49:22.198Z,14.14
2023-02-13T08:50:22.164Z,14.59
2023-02-13T08:51:22.167Z,14.81
2023-02-13T08:52:22.158Z,14.66
2023-02-13T08:53:22.146Z,14.53
2023-02-13T08:54:22.169Z,14.88
2023-02-13T08:55:22.127Z,15.22
2023-02-13T08:56:22.113Z,15.58
2023-02-13T08:57:22.112Z,15.72
2023-02-13T08:58:22.098Z,15.76
2023-02-13T08:59:22.121Z,15.79
2023-02-13T09:00:22.097Z,15.39
2023-02-13T09:01:22.127Z,15.06
2023-02-13T09:02:22.101Z,15.25
2023-02-13T09:03:22.060Z,15.31
2023-02-13T09:04:22.045Z,15.24
2023-02-13T09:05:23.070Z,15.29
2023-02-13T09:06:22.045Z,14.84
2023-02-13T09:07:22.028Z,14.36
2023-02-13T09:08:22.036Z,13.90
2023-02-13T09:09:22.012Z,13.27
2023-02-13T09:10:22.031Z,12.75
2023-02-13T09:11:21.998Z,12.45
2023-02-13T09:12:21.997Z,12.31
2023-02-13T09:13:21.981Z,12.04
2023-02-13T09:14:24.207Z,12.04
2023-02-13T09:15:21.991Z,12.17
2023-02-13T09:16:21.981Z,12.75
2023-02-13T09:17:22.951Z,12.73
2023-02-13T09:18:21.942Z,12.67
2023-02-13T09:19:21.940Z,12.75
2023-02-13T09:20:21.956Z,13.30
2023-02-13T09:21:21.929Z,13.03
2023-02-13T09:22:21.948Z,12.60
2023-02-13T09:23:21.909Z,12.67
2023-02-13T09:24:21.901Z,12.53
2023-02-13T09:25:21.918Z,12.53
2023-02-13T09:26:21.888Z,12.15
2023-02-13T09:27:21.884Z,11.87
2023-02-13T09:28:21.921Z,11.66
2023-02-13T09:29:21.861Z,11.55
2023-02-13T09:30:21.883Z,11.30
2023-02-13T09:31:22.010Z,11.26
2023-02-13T09:32:21.838Z,11.07
2023-02-13T09:33:21.832Z,11.02
2023-02-13T09:34:21.821Z,10.81
2023-02-13T09:35:21.852Z,10.87
2023-02-13T09:36:21.807Z,10.94
2023-02-13T09:37:21.800Z,11.51
2023-02-13T09:38:21.792Z,12.00
2023-02-13T09:39:21.793Z,12.54
2023-02-13T09:40:21.803Z,12.82
2023-02-13T09:41:21.772Z,13.15
2023-02-13T09:42:21.763Z,13.28
2023-02-13T09:43:21.748Z,13.25
2023-02-13T09:44:21.747Z,12.90
2023-02-13T09:45:21.760Z,13.11
2023-02-13T09:46:21.795Z,13.31
2023-02-13T09:47:21.712Z,13.65
2023-02-13T09:48:21.709Z,13.52
2023-02-13T09:49:21.702Z,12.72
2023-02-13T09:50:21.799Z,12.53
2023-02-13T09:51:21.680Z,12.40
2023-02-13T09:52:21.686Z,12.76
2023-02-13T09:53:21.673Z,12.93
2023-02-13T09:54:21.661Z,13.20
2023-02-13T09:55:21.691Z,13.30
2023-02-13T09:56:21.645Z,13.49
2023-02-13T09:57:21.731Z,13.57
2023-02-13T09:58:21.629Z,13.56
2023-02-13T09:59:21.625Z,13.86
2023-02-13T10:00:21.646Z,13.78
2023-02-13T10:01:21.641Z,13.67
2023-02-13T10:02:22.603Z,13.89
2023-02-13T10:03:21.600Z,13.63
2023-02-13T10:04:21.588Z,13.89
2023-02-13T10:05:21.655Z,13.87
2023-02-13T10:06:21.599Z,13.86
2023-02-13T10:07:21.568Z,13.85
2023-02-13T10:08:21.568Z,13.47
2023-02-13T10:09:21.557Z,13.52
2023-02-13T10:10:21.589Z,13.33
2023-02-13T10:11:22.405Z,13.03
2023-02-13T10:12:21.534Z,12.80
2023-02-13T10:13:22.160Z,12.72
2023-02-13T10:14:21.519Z,12.78
2023-02-13T10:15:21.511Z,12.76
2023-02-13T10:16:21.567Z,12.67
2023-02-13T10:17:21.495Z,12.60
2023-02-13T10:18:21.497Z,12.70
2023-02-13T10:19:21.509Z,12.73
2023-02-13T10:20:21.480Z,12.78
2023-02-13T10:21:21.486Z,13.03
2023-02-13T10:22:21.471Z,13.25
2023-02-13T10:23:21.449Z,12.95
2023-02-13T10:24:21.444Z,12.67
2023-02-13T10:25:21.440Z,12.67
2023-02-13T10:26:21.460Z,12.67
2023-02-13T10:27:21.413Z,12.75
2023-02-13T10:28:21.458Z,12.79
2023-02-13T10:29:21.396Z,12.64
2023-02-13T10:30:21.396Z,12.64
2023-02-13T10:31:21.511Z,12.47
2023-02-13T10:32:21.522Z,12.27
2023-02-13T10:33:21.362Z,12.07
2023-02-13T10:34:21.355Z,11.95
2023-02-13T10:35:21.346Z,11.73
2023-02-13T10:36:21.372Z,11.55
2023-02-13T10:37:21.329Z,11.44
2023-02-13T10:38:21.321Z,11.48
2023-02-13T10:39:21.316Z,11.48
2023-02-13T10:40:21.308Z,11.36
2023-02-13T10:41:21.327Z,10.99
2023-02-13T10:42:21.297Z,11.02
2023-02-13T10:43:21.285Z,10.94
2023-02-13T10:44:21.281Z,10.86
2023-02-13T10:45:21.272Z,10.72
2023-02-13T10:46:21.293Z,10.69
2023-02-13T10:47:21.262Z,10.51
2023-02-13T10:48:21.242Z,10.61
2023-02-13T10:49:21.238Z,10.60
2023-02-13T10:50:21.229Z,10.59
2023-02-13T10:51:21.242Z,10.53
2023-02-13T10:52:21.206Z,10.53
2023-02-13T10:53:21.204Z,10.40
2023-02-13T10:54:21.193Z,10.49
2023-02-13T10:55:21.188Z,10.44
2023-02-13T10:56:21.203Z,10.54
2023-02-13T10:57:21.184Z,10.53
2023-02-13T10:58:21.160Z,10.59
2023-02-13T10:59:21.161Z,10.54
2023-02-13T11:00:21.141Z,10.56
2023-02-13T11:01:21.187Z,10.41
2023-02-13T11:02:21.125Z,10.49
2023-02-13T11:03:21.118Z,10.51
2023-02-13T11:04:21.188Z,10.41
2023-02-13T11:05:21.100Z,10.37
2023-02-13T11:06:21.118Z,10.34
2023-02-13T11:07:21.084Z,10.33
2023-02-13T11:08:21.079Z,10.25
2023-02-13T11:09:21.088Z,10.34
2023-02-13T11:10:21.062Z,10.30
2023-02-13T11:11:21.081Z,10.40
2023-02-13T11:12:21.044Z,10.37
2023-02-13T11:13:21.036Z,10.42
2023-02-13T11:14:21.054Z,10.49
2023-02-13T11:15:21.018Z,10.51
2023-02-13T11:16:21.052Z,10.57
2023-02-13T11:17:21.002Z,10.49
2023-02-13T11:18:21.004Z,10.57
2023-02-13T11:19:20.985Z,10.59
2023-02-13T11:20:20.969Z,10.64
2023-02-13T11:21:22.007Z,10.74
2023-02-13T11:22:20.961Z,10.72
2023-02-13T11:23:20.956Z,10.69
2023-02-13T11:24:20.952Z,10.79
2023-02-13T11:25:20.944Z,10.93
2023-02-13T11:26:20.970Z,10.92
2023-02-13T11:27:22.192Z,10.92
2023-02-13T11:28:21.929Z,10.90
2023-02-13T11:29:21.007Z,10.93
2023-02-13T11:30:20.904Z,11.02
2023-02-13T11:31:21.092Z,11.04
2023-02-13T11:32:21.074Z,11.08
2023-02-13T11:33:20.888Z,11.19
2023-02-13T11:34:20.874Z,11.25
2023-02-13T11:35:20.867Z,11.17
2023-02-13T11:36:20.862Z,11.18
2023-02-13T11:37:20.875Z,11.07
2023-02-13T11:38:20.839Z,11.11
2023-02-13T11:39:20.839Z,11.04
2023-02-13T11:40:20.828Z,11.10
2023-02-13T11:41:20.836Z,11.10
2023-02-13T11:42:20.835Z,11.17
2023-02-13T11:43:20.804Z,11.15
2023-02-13T11:44:20.797Z,11.12
2023-02-13T11:45:20.786Z,11.18
2023-02-13T11:46:20.822Z,11.35
2023-02-13T11:47:20.799Z,11.15
2023-02-13T11:48:20.765Z,11.22
2023-02-13T11:49:20.778Z,11.19
2023-02-13T11:50:20.750Z,11.18
2023-02-13T11:51:20.742Z,11.19
2023-02-13T11:52:20.758Z,11.12
2023-02-13T11:53:20.724Z,11.12
2023-02-13T11:54:20.731Z,11.27
2023-02-13T11:55:20.704Z,11.26
2023-02-13T11:56:21.731Z,11.27
2023-02-13T11:57:20.726Z,11.29
2023-02-13T11:58:20.824Z,11.48
2023-02-13T11:59:20.687Z,11.50
2023-02-13T12:00:20.685Z,11.54
2023-02-13T12:01:20.691Z,11.59
2023-02-13T12:02:20.796Z,11.57
2023-02-13T12:03:20.695Z,11.50
2023-02-13T12:04:20.664Z,11.52
2023-02-13T12:05:20.697Z,11.48
2023-02-13T12:06:20.634Z,11.37
2023-02-13T12:07:20.647Z,11.43
2023-02-13T12:08:20.617Z,11.44
2023-02-13T12:09:20.608Z,11.48
2023-02-13T12:10:20.605Z,11.57
2023-02-13T12:11:20.595Z,11.55
2023-02-13T12:12:20.613Z,11.60
2023-02-13T12:13:20.580Z,11.43
2023-02-13T12:14:20.572Z,11.68
2023-02-13T12:15:20.566Z,11.66
2023-02-13T12:16:20.567Z,11.54
2023-02-13T12:17:30.814Z,11.66
2023-02-13T12:18:22.540Z,11.81
2023-02-13T12:19:20.538Z,11.78
2023-02-13T12:20:20.527Z,11.68
2023-02-13T12:21:20.517Z,11.75
2023-02-13T12:22:20.539Z,11.86
2023-02-13T12:23:20.499Z,11.97
2023-02-13T12:24:20.511Z,11.97
2023-02-13T12:25:20.486Z,12.00
2023-02-13T12:26:20.474Z,11.95
2023-02-13T12:27:20.495Z,12.03
2023-02-13T12:28:20.532Z,12.00
2023-02-13T12:29:20.502Z,11.88
2023-02-13T12:30:21.446Z,11.99
2023-02-13T12:31:20.446Z,11.83
2023-02-13T12:32:20.450Z,11.95
2023-02-13T12:33:20.416Z,11.84
2023-02-13T12:34:20.409Z,12.06
2023-02-13T12:35:20.400Z,12.03
2023-02-13T12:36:20.393Z,12.02
2023-02-13T12:37:20.386Z,12.00
2023-02-13T12:38:20.407Z,12.00
2023-02-13T12:39:20.370Z,12.07
2023-02-13T12:40:20.361Z,12.13
2023-02-13T12:41:20.376Z,12.20
2023-02-13T12:42:20.350Z,12.29
2023-02-13T12:43:20.362Z,12.32
2023-02-13T12:44:20.361Z,12.35
2023-02-13T12:45:20.322Z,12.36
2023-02-13T12:46:20.328Z,12.27
2023-02-13T12:47:20.313Z,12.31
2023-02-13T12:48:20.321Z,12.29
2023-02-13T12:49:20.300Z,12.27
2023-02-13T12:50:21.013Z,12.37
2023-02-13T12:51:20.282Z,12.49
2023-02-13T12:52:20.275Z,12.54
2023-02-13T12:53:20.317Z,12.46
2023-02-13T12:54:20.252Z,12.49
2023-02-13T12:55:20.256Z,12.47
2023-02-13T12:56:20.236Z,12.58
2023-02-13T12:57:20.224Z,12.57
2023-02-13T12:58:20.248Z,12.53
2023-02-13T12:59:20.215Z,12.47
2023-02-13T13:00:20.223Z,12.42
2023-02-13T13:01:20.286Z,12.47
2023-02-13T13:02:20.234Z,12.47
2023-02-13T13:03:20.215Z,12.50
2023-02-13T13:04:20.180Z,12.61
2023-02-13T13:05:20.168Z,12.75
2023-02-13T13:06:20.166Z,12.64
2023-02-13T13:07:20.149Z,12.57
2023-02-13T13:08:20.165Z,12.50
2023-02-13T13:09:20.133Z,12.54